Time;durP1;ratioP1;P1;durP2;ratioP2;P2;SDS_P1;SDS_P2;PMS_P1;PMS_P2;Temp;Humidity;BMP_temperature;BMP_pressure;BME280_temperature;BME280_humidity;BME280_pressure;Samples;Min_cycle;Max_cycle;Signal;HPM_P1;HPM_P2
2022/05/02 02:11:44;;;;;;;31.93;29.33;;;9.60;99.90;;;;;;6208055;23;20449;-72
2022/05/02 02:14:11;;;;;;;31.37;28.83;;;9.60;99.90;;;;;;6212503;23;20444;-72
2022/05/02 02:16:38;;;;;;;31.37;28.87;;;9.70;99.90;;;;;;6212447;23;20421;-73
2022/05/02 02:19:05;;;;;;;32.93;30.17;;;9.80;99.90;;;;;;6213101;23;20470;-72
2022/05/02 02:21:32;;;;;;;32.53;29.87;;;9.80;99.90;;;;;;6212956;23;20479;-72
2022/05/02 02:23:59;;;;;;;32.80;29.77;;;9.90;99.90;;;;;;6213116;23;20401;-72
2022/05/02 02:26:25;;;;;;;33.57;30.67;;;10.00;99.90;;;;;;6213267;23;20460;-72
2022/05/02 02:28:53;;;;;;;30.00;27.60;;;10.00;99.90;;;;;;6212739;23;20413;-72
2022/05/02 02:31:20;;;;;;;30.80;28.43;;;10.10;99.90;;;;;;6212949;23;20416;-72
2022/05/02 02:33:47;;;;;;;30.70;28.00;;;10.10;99.90;;;;;;6214188;23;20452;-71
2022/05/02 02:36:13;;;;;;;30.47;28.07;;;10.10;99.90;;;;;;6216549;23;20409;-71
2022/05/02 02:38:40;;;;;;;32.83;30.17;;;10.20;99.90;;;;;;6216073;23;20408;-71
2022/05/02 02:41:07;;;;;;;31.40;29.00;;;10.20;99.90;;;;;;6215774;23;20934;-72
2022/05/02 02:43:33;;;;;;;30.57;28.10;;;10.30;99.90;;;;;;6215940;23;21081;-72
2022/05/02 02:46:01;;;;;;;32.00;29.47;;;10.30;99.90;;;;;;6216023;23;20978;-72
2022/05/02 02:48:28;;;;;;;31.57;28.80;;;10.20;99.90;;;;;;6216184;23;20945;-72
2022/05/02 02:50:55;;;;;;;33.33;30.33;;;10.20;99.90;;;;;;6216107;23;20900;-72
2022/05/02 02:53:21;;;;;;;30.23;27.73;;;10.10;99.90;;;;;;6215910;23;20749;-72
2022/05/02 02:55:48;;;;;;;31.60;28.73;;;10.10;99.90;;;;;;6216254;23;20740;-72
2022/05/02 02:58:14;;;;;;;30.97;28.57;;;10.20;99.90;;;;;;6216375;23;20724;-72
2022/05/02 03:00:41;;;;;;;31.70;29.20;;;10.20;99.90;;;;;;6215955;23;21095;-73
2022/05/02 03:03:09;;;;;;;33.73;31.03;;;10.30;99.90;;;;;;6215775;23;20907;-72
2022/05/02 03:08:20;;;;;;;30.70;28.20;;;10.30;99.90;;;;;;6215970;23;20412;-72
2022/05/02 03:10:47;;;;;;;34.07;30.77;;;10.40;99.90;;;;;;6215707;23;20821;-72
2022/05/02 03:13:14;;;;;;;32.27;29.63;;;10.40;99.90;;;;;;6215853;23;20444;-70
2022/05/02 03:15:40;;;;;;;36.17;33.30;;;10.40;99.90;;;;;;6216458;23;20415;-71
2022/05/02 03:18:09;;;;;;;31.27;28.67;;;10.50;99.90;;;;;;6215615;23;20409;-72
2022/05/02 03:20:35;;;;;;;34.03;31.13;;;10.40;99.90;;;;;;6216166;23;20412;-71
2022/05/02 03:23:02;;;;;;;34.13;31.30;;;10.40;99.90;;;;;;6215958;23;20400;-71
2022/05/02 03:25:28;;;;;;;34.90;32.20;;;10.40;99.90;;;;;;6216270;23;20409;-72
2022/05/02 03:27:55;;;;;;;35.60;32.37;;;10.40;99.90;;;;;;6216328;23;20442;-72
2022/05/02 03:30:22;;;;;;;32.93;30.10;;;10.30;99.90;;;;;;6216104;23;20412;-72
2022/05/02 03:32:49;;;;;;;33.77;31.13;;;10.50;99.90;;;;;;6213254;23;20982;-72
2022/05/02 03:35:17;;;;;;;34.27;31.27;;;10.40;99.90;;;;;;6215579;23;20737;-71
2022/05/02 03:37:44;;;;;;;32.63;29.93;;;10.40;99.90;;;;;;6215410;23;20776;-71
2022/05/02 03:40:11;;;;;;;33.23;30.30;;;10.50;99.90;;;;;;6215167;23;20405;-71
2022/05/02 03:42:38;;;;;;;33.63;30.63;;;10.50;99.90;;;;;;6215741;23;20466;-72
2022/05/02 03:45:06;;;;;;;34.00;31.10;;;10.50;99.90;;;;;;6214824;23;20436;-72
2022/05/02 03:47:32;;;;;;;35.27;32.03;;;10.60;99.90;;;;;;6213706;23;20467;-72
2022/05/02 03:49:59;;;;;;;33.50;30.60;;;10.60;99.90;;;;;;6213849;23;20420;-72
2022/05/02 03:52:27;;;;;;;32.47;29.60;;;10.50;99.90;;;;;;6213723;23;20409;-72
2022/05/02 03:54:54;;;;;;;32.57;29.67;;;10.40;99.90;;;;;;6213645;23;20410;-71
2022/05/02 03:57:21;;;;;;;32.80;30.17;;;10.40;99.90;;;;;;6213637;23;20405;-71
2022/05/02 03:59:47;;;;;;;32.87;30.30;;;10.40;99.90;;;;;;6213038;23;20470;-73
2022/05/02 04:02:14;;;;;;;32.23;29.73;;;10.40;99.90;;;;;;6213553;23;20505;-73
2022/05/02 04:04:41;;;;;;;30.67;28.10;;;10.50;99.90;;;;;;6213660;23;20415;-73
2022/05/02 04:07:09;;;;;;;33.80;31.00;;;10.40;99.90;;;;;;6213796;23;20413;-73
2022/05/02 04:09:37;;;;;;;31.73;29.20;;;10.60;99.90;;;;;;6212537;23;20492;-73
2022/05/02 04:12:04;;;;;;;35.60;32.50;;;10.50;99.90;;;;;;6213708;23;20392;-73
2022/05/02 04:14:31;;;;;;;32.30;29.70;;;10.50;99.90;;;;;;6213767;23;20448;-73
2022/05/02 04:16:57;;;;;;;31.40;28.80;;;10.40;99.90;;;;;;6214409;23;20420;-73
2022/05/02 04:19:24;;;;;;;33.27;30.13;;;10.40;99.90;;;;;;6213486;23;20423;-73
2022/05/02 04:21:51;;;;;;;32.10;29.50;;;10.30;99.90;;;;;;6214238;23;20413;-73
2022/05/02 04:24:17;;;;;;;32.33;29.73;;;10.30;99.90;;;;;;6214018;23;20674;-73
2022/05/02 04:26:45;;;;;;;32.93;29.70;;;10.40;99.90;;;;;;6214336;23;20475;-73
2022/05/02 04:29:12;;;;;;;33.30;30.23;;;10.30;99.90;;;;;;6214495;23;20422;-72
2022/05/02 04:31:39;;;;;;;33.20;30.50;;;10.30;99.90;;;;;;6214374;23;20420;-73
2022/05/02 04:34:05;;;;;;;32.30;29.93;;;10.30;99.90;;;;;;6214082;23;20441;-73
2022/05/02 04:36:32;;;;;;;33.43;30.33;;;10.30;99.90;;;;;;6214191;23;20461;-74
2022/05/02 04:38:59;;;;;;;34.20;31.30;;;10.30;99.90;;;;;;6214156;23;20440;-74
2022/05/02 04:41:25;;;;;;;33.97;31.17;;;10.30;99.90;;;;;;6213877;23;20455;-74
2022/05/02 04:43:54;;;;;;;33.00;30.10;;;10.30;99.90;;;;;;6214084;23;20409;-74
2022/05/02 04:46:21;;;;;;;33.20;30.30;;;10.20;99.90;;;;;;6214072;23;20413;-73
2022/05/02 04:48:47;;;;;;;36.13;33.03;;;10.30;99.90;;;;;;6213360;23;20921;-74
2022/05/02 04:51:14;;;;;;;32.60;29.87;;;10.30;99.90;;;;;;6214275;23;20947;-73
2022/05/02 04:53:40;;;;;;;33.00;30.33;;;10.40;99.90;;;;;;6214234;23;20466;-72
2022/05/02 04:56:07;;;;;;;32.10;29.40;;;10.60;99.90;;;;;;6213918;23;20472;-73
2022/05/02 04:58:34;;;;;;;31.57;28.97;;;10.80;99.90;;;;;;6213898;23;20525;-73
2022/05/02 05:01:05;;;;;;;30.17;27.73;;;11.00;99.90;;;;;;6213667;23;20443;-72
2022/05/02 05:03:32;;;;;;;32.23;29.57;;;11.20;99.90;;;;;;6213939;23;20443;-72
2022/05/02 05:05:58;;;;;;;28.80;26.50;;;11.40;99.90;;;;;;6213997;23;20412;-73
2022/05/02 05:08:25;;;;;;;31.47;29.00;;;11.50;99.90;;;;;;6213757;23;20439;-73
2022/05/02 05:11:06;;;;;;;32.90;30.00;;;11.70;99.90;;;;;;6213568;23;20443;-74
2022/05/02 05:13:44;;;;;;;33.40;30.80;;;11.90;99.90;;;;;;6213466;23;20764;-73
2022/05/02 05:16:26;;;;;;;33.30;30.67;;;12.10;99.90;;;;;;6213859;23;20393;-73
2022/05/02 05:19:18;;;;;;;37.33;33.60;;;12.30;99.90;;;;;;6213786;23;20396;-73
2022/05/02 05:21:54;;;;;;;30.00;27.80;;;12.40;99.90;;;;;;6213361;23;20393;-73
2022/05/02 05:25:13;;;;;;;31.40;28.80;;;12.30;99.90;;;;;;6213175;23;20416;-73
2022/05/02 05:27:50;;;;;;;28.30;26.20;;;12.30;99.90;;;;;;6075797;23;20409;-72
2022/05/02 05:30:50;;;;;;;29.27;27.10;;;12.50;99.90;;;;;;6213733;23;20743;-72
2022/05/02 05:33:25;;;;;;;31.73;29.33;;;12.60;99.90;;;;;;6209496;23;20608;-73
2022/05/02 05:36:03;;;;;;;29.83;27.33;;;12.90;99.90;;;;;;6212448;23;20427;-73
2022/05/02 05:38:38;;;;;;;31.07;28.67;;;12.90;99.90;;;;;;6212808;23;20397;-72
2022/05/02 05:41:23;;;;;;;29.53;27.23;;;13.00;99.90;;;;;;6212657;23;20451;-72
2022/05/02 05:43:59;;;;;;;30.60;27.87;;;13.20;99.90;;;;;;6212681;23;20762;-74
2022/05/02 05:46:57;;;;;;;28.50;26.13;;;13.40;99.90;;;;;;6210253;23;20436;-73
2022/05/02 05:49:37;;;;;;;29.97;27.57;;;13.60;99.90;;;;;;6210287;23;20416;-74
2022/05/02 05:52:11;;;;;;;29.73;27.43;;;13.90;99.90;;;;;;6212384;23;20396;-75
2022/05/02 05:54:56;;;;;;;27.43;25.17;;;14.00;99.90;;;;;;6212200;23;20435;-73
2022/05/02 05:57:32;;;;;;;28.70;26.50;;;14.20;99.90;;;;;;6212431;23;20395;-74
2022/05/02 06:00:06;;;;;;;29.07;26.97;;;14.60;99.90;;;;;;6211841;23;20851;-73
2022/05/02 06:02:41;;;;;;;29.47;27.20;;;14.90;99.90;;;;;;6212156;23;20420;-74
2022/05/02 06:05:09;;;;;;;28.03;25.83;;;15.00;99.90;;;;;;6212762;23;20389;-73
2022/05/02 06:07:37;;;;;;;30.43;28.03;;;15.10;99.90;;;;;;6211788;23;20424;-74
2022/05/02 06:10:07;;;;;;;28.77;26.37;;;15.20;99.90;;;;;;6211345;23;20444;-73
2022/05/02 06:12:34;;;;;;;29.03;26.93;;;15.30;99.90;;;;;;6211917;23;20447;-73
2022/05/02 06:20:36;;;;;;;31.37;28.97;;;15.80;99.90;;;;;;6211826;23;20373;-73
2022/05/02 06:23:03;;;;;;;28.60;26.40;;;16.40;99.90;;;;;;6212003;23;20428;-73
2022/05/02 06:25:30;;;;;;;33.87;28.80;;;16.80;99.90;;;;;;6212070;23;20459;-73
2022/05/02 06:27:58;;;;;;;29.13;26.83;;;16.90;99.90;;;;;;6212537;23;20408;-74
2022/05/02 06:30:27;;;;;;;30.17;27.77;;;17.20;99.90;;;;;;6212230;23;20412;-73
2022/05/02 06:32:58;;;;;;;28.77;26.63;;;17.60;99.90;;;;;;6211947;23;20440;-73
2022/05/02 06:35:29;;;;;;;29.57;27.27;;;18.00;99.90;;;;;;6212148;23;20436;-74
2022/05/02 06:38:06;;;;;;;36.40;33.30;;;17.90;99.90;;;;;;6212443;23;20393;-73
2022/05/02 06:40:40;;;;;;;28.27;25.87;;;17.90;99.90;;;;;;6211896;23;20392;-74
2022/05/02 06:43:17;;;;;;;28.30;26.23;;;18.50;99.90;;;;;;6212121;23;20401;-74
2022/05/02 06:45:52;;;;;;;28.80;26.60;;;19.10;99.90;;;;;;6212222;23;20412;-74
2022/05/02 06:48:37;;;;;;;27.97;25.93;;;19.20;99.50;;;;;;6211989;23;20410;-74
2022/05/02 06:51:06;;;;;;;27.80;25.90;;;19.50;98.90;;;;;;6212165;23;20405;-73
2022/05/02 06:54:07;;;;;;;28.23;25.90;;;19.70;98.10;;;;;;6211389;23;21073;-74
2022/05/02 06:56:42;;;;;;;28.73;26.67;;;19.70;97.00;;;;;;6212130;23;20764;-72
2022/05/02 06:59:18;;;;;;;28.70;26.63;;;19.80;97.10;;;;;;6212320;23;20705;-73
2022/05/02 07:01:49;;;;;;;25.77;23.97;;;20.00;96.90;;;;;;6212303;23;20400;-73
2022/05/02 07:04:36;;;;;;;26.40;24.80;;;20.40;96.30;;;;;;6212386;23;20385;-73
2022/05/02 07:07:20;;;;;;;26.63;24.87;;;20.90;95.60;;;;;;6206861;23;21101;-74
2022/05/02 07:09:53;;;;;;;26.27;24.10;;;21.30;95.00;;;;;;6210976;23;20745;-72
2022/05/02 07:12:23;;;;;;;25.40;23.60;;;22.00;93.30;;;;;;6212463;23;20834;-75
2022/05/02 07:15:03;;;;;;;26.53;24.80;;;22.30;92.40;;;;;;6212119;23;20440;-74
2022/05/02 07:17:45;;;;;;;27.40;25.43;;;22.40;92.20;;;;;;6211875;23;20393;-74
2022/05/02 07:20:18;;;;;;;24.70;23.10;;;21.80;92.30;;;;;;6213501;23;20451;-75
2022/05/02 07:22:55;;;;;;;26.27;24.37;;;21.40;93.90;;;;;;6214224;23;20417;-74
2022/05/02 07:25:25;;;;;;;26.87;25.03;;;22.10;93.30;;;;;;6213817;23;20868;-74
2022/05/02 07:28:08;;;;;;;26.07;24.40;;;22.40;92.40;;;;;;6213809;23;20416;-75
2022/05/02 07:30:35;;;;;;;27.13;25.13;;;22.40;92.30;;;;;;6213749;23;20966;-74
2022/05/02 07:33:04;;;;;;;25.77;24.07;;;22.40;91.90;;;;;;6213610;23;20415;-74
2022/05/02 07:35:31;;;;;;;26.97;25.17;;;22.80;91.40;;;;;;6213999;23;20459;-74
2022/05/02 07:37:59;;;;;;;25.17;23.50;;;23.00;90.80;;;;;;6213825;23;20904;-75
2022/05/02 07:40:29;;;;;;;26.97;25.20;;;23.20;90.50;;;;;;6214095;23;20410;-75
2022/05/02 07:42:57;;;;;;;24.53;23.00;;;23.60;89.90;;;;;;6214226;23;20412;-75
2022/05/02 07:45:28;;;;;;;26.27;24.50;;;23.70;88.80;;;;;;6214274;23;20400;-75
2022/05/02 07:47:58;;;;;;;26.00;24.30;;;23.70;88.20;;;;;;6214594;23;20407;-75
2022/05/02 07:50:27;;;;;;;26.50;24.77;;;23.80;89.20;;;;;;6214123;23;20442;-75
2022/05/02 07:52:56;;;;;;;25.97;24.23;;;23.80;89.00;;;;;;6213941;23;20409;-76
2022/05/02 07:55:23;;;;;;;30.07;27.90;;;24.60;85.90;;;;;;6213778;23;20452;-75
2022/05/02 07:57:52;;;;;;;26.67;24.97;;;24.40;84.80;;;;;;6213822;23;20412;-74
2022/05/02 08:00:19;;;;;;;27.27;25.50;;;25.00;83.50;;;;;;6213696;23;20528;-74
2022/05/02 08:02:47;;;;;;;26.90;24.97;;;24.60;84.50;;;;;;6213669;23;20416;-74
2022/05/02 08:05:20;;;;;;;26.90;25.20;;;24.20;85.50;;;;;;6213865;23;20419;-74
2022/05/02 08:07:46;;;;;;;26.63;24.93;;;24.50;84.80;;;;;;6213741;23;20397;-74
2022/05/02 08:10:55;;;;;;;26.27;24.57;;;24.30;84.70;;;;;;6213058;23;20963;-75
2022/05/02 08:13:37;;;;;;;25.70;24.10;;;24.50;83.30;;;;;;6063431;23;20405;-75
2022/05/02 08:16:06;;;;;;;27.50;25.70;;;24.40;84.00;;;;;;6063296;23;20393;-75
2022/05/02 08:18:56;;;;;;;27.23;25.23;;;25.00;84.40;;;;;;6154880;23;20678;-75
2022/05/02 08:21:28;;;;;;;26.67;24.87;;;24.80;83.00;;;;;;6211817;23;20402;-73
2022/05/02 08:27:17;;;;;;;26.73;25.03;;;25.80;79.80;;;;;;6213098;23;20428;-75
2022/05/02 08:29:57;;;;;;;27.13;25.33;;;26.40;77.60;;;;;;6213005;23;20941;-74
2022/05/02 08:32:34;;;;;;;26.43;24.83;;;26.10;79.10;;;;;;6212897;23;20393;-74
2022/05/02 08:35:04;;;;;;;26.37;24.53;;;26.40;78.00;;;;;;6212791;23;20981;-74
2022/05/02 08:37:50;;;;;;;27.87;26.07;;;26.20;77.20;;;;;;6213121;23;20436;-75
2022/05/02 08:40:42;;;;;;;25.23;23.73;;;26.70;74.80;;;;;;6213205;23;20397;-75
2022/05/02 08:43:35;;;;;;;26.60;24.83;;;27.50;74.30;;;;;;6213715;23;20420;-74
2022/05/02 08:46:48;;;;;;;25.83;24.30;;;27.50;74.20;;;;;;6196878;23;20821;-75
2022/05/02 08:49:54;;;;;;;28.83;26.93;;;27.40;73.00;;;;;;6213148;23;20424;-74
2022/05/02 08:52:58;;;;;;;27.13;25.30;;;27.50;71.50;;;;;;6212849;23;20394;-74
2022/05/02 08:56:09;;;;;;;27.27;25.57;;;27.90;69.60;;;;;;6213167;23;20471;-75
2022/05/02 08:59:22;;;;;;;27.37;25.67;;;28.80;67.20;;;;;;6212459;23;20904;-74
2022/05/02 09:02:38;;;;;;;27.47;25.70;;;28.30;66.80;;;;;;6212667;23;20404;-75
2022/05/02 09:05:44;;;;;;;27.33;25.33;;;28.70;66.00;;;;;;6125345;23;20409;-75
2022/05/02 09:08:48;;;;;;;28.30;26.30;;;29.40;63.60;;;;;;6212729;23;20403;-75
2022/05/02 09:11:32;;;;;;;25.13;23.70;;;28.50;63.50;;;;;;6212079;23;20432;-74
2022/05/02 09:14:38;;;;;;;25.13;23.63;;;27.90;64.30;;;;;;6213034;23;20417;-74
2022/05/02 09:17:56;;;;;;;23.87;22.40;;;27.80;65.50;;;;;;6212823;23;20450;-74
2022/05/02 09:20:48;;;;;;;25.33;23.77;;;27.90;61.70;;;;;;6213091;23;20389;-75
2022/05/02 09:23:45;;;;;;;25.30;23.70;;;28.20;60.50;;;;;;6192557;23;20731;-75
2022/05/02 09:26:44;;;;;;;23.80;22.40;;;29.40;58.10;;;;;;6213032;23;20418;-75
2022/05/02 09:29:40;;;;;;;24.60;23.17;;;28.10;58.80;;;;;;6132213;23;21032;-74
2022/05/02 09:32:09;;;;;;;24.60;22.80;;;26.50;62.50;;;;;;6131247;23;20904;-74
2022/05/02 09:34:46;;;;;;;23.30;22.00;;;26.40;63.80;;;;;;6212438;23;20503;-74
2022/05/02 09:37:21;;;;;;;24.50;23.13;;;27.10;62.50;;;;;;6212925;23;20397;-75
2022/05/02 09:39:53;;;;;;;22.57;21.37;;;27.60;60.20;;;;;;6212508;23;20393;-75
2022/05/02 09:42:46;;;;;;;24.00;22.80;;;29.10;58.60;;;;;;6212578;23;20646;-76
2022/05/02 09:51:56;;;;;;;21.60;20.37;;;31.60;53.30;;;;;;6062411;23;20729;-74
2022/05/02 09:57:32;;;;;;;21.37;20.23;;;30.00;52.20;;;;;;6212357;23;20372;-75
2022/05/02 10:02:50;;;;;;;19.43;18.47;;;30.20;51.80;;;;;;6212061;23;20447;-74
2022/05/02 10:05:23;;;;;;;20.00;18.70;;;30.90;50.40;;;;;;6211919;23;20405;-74
2022/05/02 10:08:10;;;;;;;19.70;18.80;;;31.40;49.30;;;;;;6212159;23;20393;-74
2022/05/02 10:10:46;;;;;;;19.27;18.30;;;32.00;47.10;;;;;;6211720;23;20451;-75
2022/05/02 10:13:25;;;;;;;20.60;19.60;;;32.40;46.50;;;;;;6212395;23;20906;-75
2022/05/02 10:16:05;;;;;;;20.77;19.30;;;32.30;45.80;;;;;;6212084;23;20425;-75
2022/05/02 10:18:52;;;;;;;19.07;18.17;;;31.00;46.70;;;;;;6211894;23;20397;-75
2022/05/02 10:21:39;;;;;;;17.40;16.60;;;28.80;49.10;;;;;;6212058;23;20557;-74
2022/05/02 10:24:42;;;;;;;18.23;17.13;;;27.00;51.30;;;;;;6211824;23;20747;-75
2022/05/02 10:27:23;;;;;;;17.53;16.60;;;27.70;50.60;;;;;;6212144;23;20401;-72
2022/05/02 10:30:04;;;;;;;18.67;17.57;;;27.10;51.10;;;;;;6211926;23;20396;-73
2022/05/02 10:32:45;;;;;;;17.40;16.50;;;26.30;53.20;;;;;;6212113;23;20700;-73
2022/05/02 10:35:14;;;;;;;18.23;17.23;;;27.00;52.30;;;;;;6212027;23;20928;-74
2022/05/02 10:37:43;;;;;;;18.97;17.87;;;27.20;51.20;;;;;;6212436;23;20796;-74
2022/05/02 10:40:13;;;;;;;18.03;17.13;;;26.00;52.50;;;;;;6212025;23;20441;-74
2022/05/02 10:42:46;;;;;;;16.90;16.00;;;25.40;54.00;;;;;;6212191;23;20401;-74
2022/05/02 10:45:15;;;;;;;17.77;16.67;;;26.10;54.50;;;;;;6212035;23;20389;-74
2022/05/02 10:47:45;;;;;;;18.43;17.43;;;26.50;52.70;;;;;;6211451;23;20896;-74
2022/05/02 10:50:27;;;;;;;18.87;17.90;;;26.70;52.30;;;;;;6211705;23;20408;-74
2022/05/02 10:53:35;;;;;;;18.33;17.10;;;26.70;53.10;;;;;;6212002;23;20393;-75
2022/05/02 10:56:19;;;;;;;18.07;17.17;;;29.20;50.70;;;;;;6178694;23;20444;-73
2022/05/02 10:58:47;;;;;;;17.80;16.90;;;30.30;47.80;;;;;;6214035;23;20475;-74
2022/05/02 11:01:23;;;;;;;18.87;17.87;;;30.80;46.50;;;;;;6214267;23;20408;-73
2022/05/02 11:04:03;;;;;;;16.83;16.00;;;31.00;45.40;;;;;;6213570;23;20699;-74
2022/05/02 11:06:51;;;;;;;17.37;16.47;;;29.90;45.80;;;;;;6213338;23;20393;-74
2022/05/02 11:09:25;;;;;;;16.70;15.90;;;29.00;48.10;;;;;;6213478;23;20412;-72
2022/05/02 11:11:53;;;;;;;18.40;17.30;;;29.30;47.00;;;;;;6183907;23;20549;-74
2022/05/02 11:14:35;;;;;;;17.13;16.20;;;28.50;47.50;;;;;;6183755;23;20408;-74
2022/05/02 11:17:15;;;;;;;19.10;18.10;;;27.90;48.90;;;;;;6183964;23;20720;-73
2022/05/02 11:22:37;;;;;;;18.83;17.80;;;26.70;53.70;;;;;;6183615;23;20434;-74
2022/05/02 11:25:07;;;;;;;17.90;17.00;;;26.70;53.80;;;;;;6183435;23;20567;-74
2022/05/02 11:27:47;;;;;;;18.47;17.57;;;27.50;52.50;;;;;;6183229;23;20435;-74
2022/05/02 11:30:18;;;;;;;17.60;16.70;;;26.50;52.10;;;;;;6183820;23;20397;-74
2022/05/02 11:33:12;;;;;;;17.03;16.23;;;26.20;52.30;;;;;;6183456;23;20393;-73
2022/05/02 11:35:40;;;;;;;17.40;16.50;;;25.30;52.90;;;;;;6183502;23;20438;-73
2022/05/02 11:38:16;;;;;;;17.50;16.40;;;25.50;54.60;;;;;;6183593;23;20417;-73
2022/05/02 11:40:47;;;;;;;18.07;17.07;;;25.70;54.80;;;;;;6183948;23;20393;-73
2022/05/02 11:43:19;;;;;;;17.07;16.13;;;25.70;54.90;;;;;;6183787;23;20489;-73
2022/05/02 11:45:57;;;;;;;18.10;17.20;;;26.10;54.30;;;;;;6183589;23;20390;-72
2022/05/02 11:48:46;;;;;;;18.73;17.73;;;26.70;54.80;;;;;;6183502;23;20675;-72
2022/05/02 11:51:22;;;;;;;18.40;17.40;;;26.10;53.70;;;;;;6183781;23;20394;-72
2022/05/02 11:53:55;;;;;;;16.80;16.03;;;26.60;54.00;;;;;;6183575;23;20389;-73
2022/05/02 11:56:33;;;;;;;17.37;16.47;;;26.20;53.90;;;;;;6183149;23;20940;-73
2022/05/02 11:59:05;;;;;;;17.67;16.87;;;25.20;56.10;;;;;;6183299;23;20401;-73
2022/05/02 12:01:37;;;;;;;16.17;15.20;;;24.70;54.70;;;;;;6183394;23;20425;-73
2022/05/02 12:04:05;;;;;;;16.33;15.53;;;24.60;55.40;;;;;;6183374;23;20730;-73
2022/05/02 12:06:42;;;;;;;16.47;15.57;;;25.00;55.40;;;;;;6182463;23;20496;-73
2022/05/02 12:09:21;;;;;;;18.00;17.10;;;25.90;54.80;;;;;;6182692;23;20430;-73
2022/05/02 12:11:53;;;;;;;15.70;15.00;;;26.10;52.80;;;;;;6183065;23;20390;-73
2022/05/02 12:14:22;;;;;;;15.90;15.03;;;25.60;53.70;;;;;;6182971;23;20405;-73
2022/05/02 12:17:05;;;;;;;15.33;14.63;;;25.60;53.90;;;;;;6182833;23;20445;-73
2022/05/02 12:19:32;;;;;;;16.70;15.90;;;26.40;53.40;;;;;;6183184;23;20456;-73
2022/05/02 12:22:01;;;;;;;15.93;15.17;;;26.00;53.80;;;;;;6183013;23;21017;-72
2022/05/02 12:24:33;;;;;;;15.80;15.10;;;25.60;54.90;;;;;;6183505;23;20416;-72
2022/05/02 12:27:00;;;;;;;16.17;15.27;;;24.90;56.40;;;;;;6183225;23;20394;-72
2022/05/02 12:29:29;;;;;;;15.67;14.87;;;24.40;57.20;;;;;;6183103;23;20421;-73
2022/05/02 12:32:01;;;;;;;16.57;15.77;;;24.80;57.20;;;;;;6183316;23;20413;-72
2022/05/02 12:34:37;;;;;;;17.00;16.20;;;25.60;55.60;;;;;;6183381;23;20382;-72
2022/05/02 12:37:10;;;;;;;16.53;15.63;;;26.00;53.20;;;;;;6182793;23;20438;-72
2022/05/02 12:39:46;;;;;;;16.70;15.73;;;25.50;54.30;;;;;;6182987;23;20394;-73
2022/05/02 12:42:15;;;;;;;16.07;15.27;;;24.80;55.60;;;;;;6183262;23;20398;-73
2022/05/02 12:44:46;;;;;;;16.70;15.87;;;24.30;58.30;;;;;;6183422;23;20421;-73
2022/05/02 12:47:21;;;;;;;15.73;14.93;;;24.10;58.70;;;;;;6183054;23;20460;-72
2022/05/02 12:50:00;;;;;;;15.63;14.93;;;23.70;59.60;;;;;;6182619;23;20449;-74
2022/05/02 12:52:29;;;;;;;16.97;16.07;;;23.10;59.80;;;;;;6183126;23;20401;-73
2022/05/02 12:54:56;;;;;;;15.60;14.90;;;22.60;60.20;;;;;;6183015;23;20410;-73
2022/05/02 13:00:36;;;;;;;15.60;14.70;;;22.30;61.40;;;;;;6182494;23;20430;-72
2022/05/02 13:03:21;;;;;;;14.67;13.97;;;22.70;61.00;;;;;;6182294;23;20508;-72
2022/05/02 13:05:54;;;;;;;14.97;14.37;;;23.00;60.30;;;;;;6182614;23;21030;-73
2022/05/02 13:08:31;;;;;;;14.37;13.77;;;22.70;60.60;;;;;;6181987;23;20950;-73
2022/05/02 13:11:08;;;;;;;14.80;14.20;;;22.50;60.30;;;;;;6202870;23;20784;-73
2022/05/02 13:13:42;;;;;;;15.00;14.30;;;24.10;58.10;;;;;;6212718;23;20720;-73
2022/05/02 13:16:26;;;;;;;17.20;16.20;;;25.40;56.20;;;;;;6212893;23;20428;-72
2022/05/02 13:18:55;;;;;;;14.57;13.97;;;26.00;54.30;;;;;;6212070;23;20939;-72
2022/05/02 13:21:22;;;;;;;15.73;15.03;;;26.50;52.80;;;;;;6212721;23;20409;-72
2022/05/02 13:23:51;;;;;;;16.27;15.47;;;26.00;53.80;;;;;;6212479;23;20413;-71
2022/05/02 13:26:56;;;;;;;15.63;14.73;;;25.50;55.40;;;;;;6212514;23;20397;-72
2022/05/02 13:29:44;;;;;;;15.43;14.57;;;25.00;56.90;;;;;;6212769;23;20393;-73
2022/05/02 13:32:18;;;;;;;15.00;14.20;;;24.80;57.10;;;;;;6212587;23;20409;-72
2022/05/02 13:35:10;;;;;;;15.00;14.17;;;24.50;57.90;;;;;;6212333;23;20384;-73
2022/05/02 13:37:56;;;;;;;15.73;14.93;;;24.10;58.70;;;;;;6211972;23;20405;-73
2022/05/02 13:40:40;;;;;;;15.20;14.50;;;23.40;58.90;;;;;;6212533;23;20396;-74
2022/05/02 13:43:18;;;;;;;15.40;14.60;;;22.80;59.10;;;;;;6212580;23;20385;-74
2022/05/02 13:45:52;;;;;;;15.40;14.70;;;22.40;61.30;;;;;;6212122;23;20381;-73
2022/05/02 13:48:41;;;;;;;15.40;14.40;;;22.80;62.00;;;;;;6212486;23;20915;-72
2022/05/02 13:51:19;;;;;;;14.70;14.00;;;23.30;61.00;;;;;;6212621;23;20389;-73
2022/05/02 13:53:56;;;;;;;14.50;13.90;;;23.50;58.90;;;;;;6212010;23;20384;-72
2022/05/02 13:56:36;;;;;;;15.17;14.50;;;23.30;58.40;;;;;;6212356;23;20432;-72
2022/05/02 13:59:05;;;;;;;15.27;14.67;;;24.00;58.00;;;;;;6212495;23;20496;-73
2022/05/02 14:01:44;;;;;;;15.53;14.90;;;24.10;58.10;;;;;;6212196;23;20408;-73
2022/05/02 14:04:29;;;;;;;14.20;13.50;;;24.80;57.50;;;;;;6212522;23;20397;-73
2022/05/02 14:07:06;;;;;;;16.73;15.83;;;26.40;55.60;;;;;;6212261;23;20393;-72
2022/05/02 14:09:44;;;;;;;15.33;14.73;;;27.20;54.60;;;;;;6211809;23;20542;-72
2022/05/02 14:12:29;;;;;;;15.40;14.70;;;28.20;53.00;;;;;;6212292;23;20403;-73
2022/05/02 14:14:56;;;;;;;14.90;14.30;;;28.70;51.30;;;;;;6212586;23;20389;-72
2022/05/02 14:17:31;;;;;;;15.80;15.10;;;27.30;52.40;;;;;;6212320;23;20440;-72
2022/05/02 14:20:20;;;;;;;15.03;14.43;;;26.10;54.60;;;;;;6212564;23;20397;-73
2022/05/02 14:22:48;;;;;;;14.80;14.10;;;24.50;56.20;;;;;;6212101;23;20389;-73
2022/05/02 14:25:26;;;;;;;15.60;14.90;;;23.60;56.60;;;;;;6212227;23;20464;-72
2022/05/02 14:27:54;;;;;;;14.77;14.07;;;22.50;58.90;;;;;;6212079;23;20420;-72
2022/05/02 14:30:24;;;;;;;14.37;13.67;;;22.20;59.60;;;;;;6211814;23;20436;-73
2022/05/02 14:32:51;;;;;;;14.10;13.50;;;21.80;61.40;;;;;;6212301;23;20397;-72
2022/05/02 14:35:26;;;;;;;14.83;14.17;;;21.70;62.40;;;;;;6212122;23;20409;-73
2022/05/02 14:37:54;;;;;;;15.50;14.70;;;21.80;61.60;;;;;;6212554;23;20403;-74
2022/05/02 14:40:22;;;;;;;15.60;14.90;;;22.00;60.70;;;;;;6212118;23;20400;-74
2022/05/02 14:42:50;;;;;;;15.83;15.03;;;21.80;60.90;;;;;;6212108;23;21078;-72
2022/05/02 14:45:19;;;;;;;15.07;14.37;;;21.80;62.00;;;;;;6211859;23;20409;-72
2022/05/02 14:47:49;;;;;;;15.00;14.30;;;21.80;62.70;;;;;;6211982;23;20424;-72
2022/05/02 14:50:16;;;;;;;15.07;14.47;;;21.60;63.40;;;;;;6211506;23;20461;-72
2022/05/02 14:52:48;;;;;;;13.33;12.73;;;21.80;63.30;;;;;;6212185;23;20412;-73
2022/05/02 14:55:17;;;;;;;15.03;14.30;;;22.00;62.80;;;;;;6212067;23;20416;-73
2022/05/02 14:57:48;;;;;;;14.63;14.03;;;22.10;61.10;;;;;;6212039;23;20476;-73
2022/05/02 15:00:18;;;;;;;15.80;14.97;;;22.50;61.10;;;;;;6212073;23;20443;-73
2022/05/02 15:02:47;;;;;;;15.10;14.40;;;22.90;60.70;;;;;;6212003;23;20392;-71
2022/05/02 15:05:16;;;;;;;14.63;13.93;;;23.00;59.80;;;;;;6211984;23;20455;-74
2022/05/02 15:08:15;;;;;;;14.77;14.17;;;22.90;59.70;;;;;;6212087;23;20760;-72
2022/05/02 15:10:54;;;;;;;12.93;12.33;;;22.70;60.20;;;;;;6211867;23;20440;-72
2022/05/02 15:13:57;;;;;;;15.43;14.73;;;22.10;61.80;;;;;;6211976;23;20900;-73
2022/05/02 15:16:34;;;;;;;14.60;14.00;;;22.10;62.20;;;;;;6149838;23;20450;-72
2022/05/02 15:19:37;;;;;;;16.00;15.30;;;22.20;62.00;;;;;;6211505;23;20392;-73
2022/05/02 15:22:24;;;;;;;15.00;14.30;;;22.20;61.80;;;;;;6211751;23;20842;-72
2022/05/02 15:24:57;;;;;;;13.90;13.30;;;22.30;61.60;;;;;;6212020;23;20389;-72
2022/05/02 15:38:53;;;;;;;15.80;14.90;;;22.50;62.70;;;;;;6211532;23;20396;-73
2022/05/02 15:41:55;;;;;;;15.10;14.50;;;22.20;62.90;;;;;;6212344;23;20904;-73
2022/05/02 15:44:26;;;;;;;14.93;14.13;;;22.20;63.90;;;;;;6213617;23;20458;-71
2022/05/02 15:46:55;;;;;;;15.20;14.50;;;21.90;65.30;;;;;;6213746;23;20393;-74
2022/05/02 15:49:24;;;;;;;15.83;15.10;;;21.80;65.60;;;;;;6213565;23;20720;-72
2022/05/02 15:51:52;;;;;;;15.27;14.53;;;21.70;66.60;;;;;;6213712;23;20454;-73
2022/05/02 15:54:56;;;;;;;15.83;15.03;;;21.80;67.50;;;;;;6213556;23;20405;-74
2022/05/02 15:57:49;;;;;;;15.57;14.87;;;22.20;66.70;;;;;;6213478;23;20429;-71
2022/05/02 16:00:23;;;;;;;15.60;14.90;;;22.30;65.90;;;;;;6213017;23;20389;-73
2022/05/02 16:03:23;;;;;;;17.10;16.00;;;22.10;66.20;;;;;;6213167;23;20393;-72